createdAt,value
2023-01-19T00:00:46.680Z,92939.97
2023-01-19T00:03:17.992Z,92943.91
2023-01-19T00:05:45.497Z,92932.75
2023-01-19T00:08:15.986Z,92961.09
2023-01-19T00:10:44.555Z,92926.50
2023-01-19T00:13:11.481Z,92971.09
2023-01-19T00:15:38.184Z,92948.81
2023-01-19T00:18:05.506Z,92938.97
2023-01-19T00:20:32.954Z,92952.16
2023-01-19T00:22:59.901Z,92966.00
2023-01-19T00:25:26.760Z,93004.16
2023-01-19T00:27:53.571Z,92958.13
2023-01-19T00:30:20.284Z,92949.94
2023-01-19T00:32:47.000Z,92965.72
2023-01-19T00:35:13.735Z,92941.13
2023-01-19T00:37:40.380Z,92972.72
2023-01-19T00:40:07.807Z,92947.97
2023-01-19T00:42:40.277Z,92924.31
2023-01-19T00:45:23.409Z,92920.28
2023-01-19T00:47:57.009Z,92963.00
2023-01-19T00:50:25.497Z,92971.16
2023-01-19T00:52:54.205Z,92972.03
2023-01-19T00:55:21.714Z,92950.31
2023-01-19T00:57:49.067Z,92953.84
2023-01-19T01:00:19.772Z,92957.03
2023-01-19T01:02:47.250Z,92917.41
2023-01-19T01:05:13.996Z,92940.69
2023-01-19T01:07:41.659Z,92964.53
2023-01-19T01:10:09.399Z,92957.25
2023-01-19T01:12:37.147Z,92968.06
2023-01-19T01:15:05.482Z,92972.78
2023-01-19T01:17:32.128Z,92971.78
2023-01-19T01:19:59.023Z,92951.47
2023-01-19T01:22:25.840Z,92970.06
2023-01-19T01:24:52.528Z,92967.31
2023-01-19T01:27:19.194Z,92950.25
2023-01-19T01:29:48.653Z,92955.72
2023-01-19T01:32:16.777Z,92974.81
2023-01-19T01:34:43.918Z,92977.50
2023-01-19T01:37:10.597Z,92954.38
2023-01-19T01:39:37.451Z,92979.88
2023-01-19T01:42:18.283Z,92985.56
2023-01-19T01:44:50.049Z,92978.00
2023-01-19T01:47:28.036Z,92959.91
2023-01-19T01:50:11.103Z,92969.13
2023-01-19T01:53:06.941Z,92984.66
2023-01-19T01:55:34.852Z,92966.28
2023-01-19T01:58:04.342Z,92973.16
2023-01-19T02:00:54.417Z,92976.03
2023-01-19T02:03:23.661Z,92985.72
2023-01-19T02:05:52.139Z,92985.13
2023-01-19T02:08:44.165Z,92971.69
2023-01-19T02:11:30.390Z,92973.66
2023-01-19T02:13:57.596Z,92948.81
2023-01-19T02:16:24.444Z,92963.50
2023-01-19T02:18:51.222Z,92968.88
2023-01-19T02:21:45.627Z,92975.13
2023-01-19T02:24:13.029Z,92942.69
2023-01-19T02:26:48.310Z,92967.59
2023-01-19T02:29:17.763Z,92968.50
2023-01-19T02:31:47.937Z,92947.34
2023-01-19T02:34:19.969Z,92976.13
2023-01-19T02:36:52.164Z,92954.16
2023-01-19T02:39:22.749Z,92968.78
2023-01-19T02:41:54.657Z,92965.91
2023-01-19T02:44:23.537Z,92949.03
2023-01-19T02:46:53.121Z,92955.72
2023-01-19T02:49:19.759Z,92973.19
2023-01-19T02:51:46.796Z,92978.06
2023-01-19T02:54:17.487Z,92973.28
2023-01-19T02:57:11.309Z,92957.97
2023-01-19T02:59:49.658Z,92982.94
2023-01-19T03:02:38.081Z,92955.25
2023-01-19T03:05:22.148Z,92949.66
2023-01-19T03:08:03.657Z,92953.66
2023-01-19T03:10:49.915Z,92944.78
2023-01-19T03:13:26.485Z,92946.69
2023-01-19T03:16:05.553Z,92945.19
2023-01-19T03:18:36.110Z,92929.38
2023-01-19T03:21:07.287Z,92962.00
2023-01-19T03:23:36.571Z,92949.16
2023-01-19T03:26:07.130Z,92964.38
2023-01-19T03:28:35.751Z,92935.09
2023-01-19T03:31:25.291Z,92931.44
2023-01-19T03:33:56.911Z,92914.09
2023-01-19T03:36:49.241Z,92913.50
2023-01-19T03:39:21.729Z,92938.63
2023-01-19T03:41:52.445Z,92942.44
2023-01-19T03:44:19.110Z,92938.69
2023-01-19T03:46:48.060Z,92922.22
2023-01-19T03:49:14.745Z,92918.59
2023-01-19T03:51:41.999Z,92954.19
2023-01-19T03:54:11.101Z,92932.88
2023-01-19T03:56:37.779Z,92945.72
2023-01-19T03:59:07.415Z,92938.50
2023-01-19T04:01:34.120Z,92934.28
2023-01-19T04:04:01.081Z,92942.22
2023-01-19T04:06:28.239Z,92965.63
2023-01-19T04:08:55.094Z,92955.38
2023-01-19T04:11:21.881Z,92912.59
2023-01-19T04:13:48.610Z,92934.72
2023-01-19T04:16:20.050Z,92929.84
2023-01-19T04:18:47.207Z,92925.94
2023-01-19T04:21:13.856Z,92934.38
2023-01-19T04:23:40.612Z,92933.41
2023-01-19T04:26:08.596Z,92936.56
2023-01-19T04:28:37.184Z,92938.00
2023-01-19T04:31:05.228Z,92941.00
2023-01-19T04:33:32.301Z,92915.84
2023-01-19T04:35:59.288Z,92901.38
2023-01-19T04:38:26.498Z,92912.50
2023-01-19T04:40:54.190Z,92901.47
2023-01-19T04:43:21.389Z,92966.09
2023-01-19T04:45:49.166Z,92934.97
2023-01-19T04:48:18.617Z,92955.78
2023-01-19T04:50:45.632Z,92952.28
2023-01-19T04:53:13.802Z,92962.84
2023-01-19T04:55:40.912Z,92905.47
2023-01-19T04:58:07.754Z,92937.53
2023-01-19T05:00:34.471Z,92935.94
2023-01-19T05:03:02.692Z,92942.22
2023-01-19T05:05:29.915Z,92983.56
2023-01-19T05:07:56.682Z,92950.50
2023-01-19T05:10:23.946Z,92978.44
2023-01-19T05:12:51.310Z,92944.84
2023-01-19T05:15:18.329Z,92974.34
2023-01-19T05:17:45.160Z,92938.97
2023-01-19T05:20:15.738Z,92971.41
2023-01-19T05:22:43.042Z,92999.47
2023-01-19T05:25:09.933Z,92960.53
2023-01-19T05:27:37.447Z,92953.13
2023-01-19T05:30:05.523Z,92953.06
2023-01-19T05:32:32.173Z,92991.28
2023-01-19T05:34:58.826Z,92984.91
2023-01-19T05:37:25.721Z,92967.28
2023-01-19T05:39:52.813Z,92955.41
2023-01-19T05:42:20.896Z,93007.13
2023-01-19T05:44:47.575Z,92994.13
2023-01-19T05:47:14.205Z,92969.69
2023-01-19T05:49:40.864Z,92993.06
2023-01-19T05:52:07.566Z,93004.16
2023-01-19T05:54:34.314Z,93043.09
2023-01-19T05:57:02.216Z,92999.75
2023-01-19T05:59:28.801Z,93002.34
2023-01-19T06:01:55.740Z,93033.22
2023-01-19T06:04:22.468Z,93018.56
2023-01-19T06:06:50.325Z,93015.69
2023-01-19T06:09:17.552Z,93043.31
2023-01-19T06:11:45.259Z,93019.34
2023-01-19T06:14:12.493Z,93023.56
2023-01-19T06:16:39.136Z,93032.03
2023-01-19T06:19:05.965Z,93024.44
2023-01-19T06:21:33.313Z,93024.44
2023-01-19T06:24:00.111Z,93040.84
2023-01-19T06:26:26.712Z,93039.47
2023-01-19T06:28:53.312Z,93044.91
2023-01-19T06:31:20.030Z,93050.72
2023-01-19T06:33:47.255Z,93072.41
2023-01-19T06:36:13.831Z,93058.72
2023-01-19T06:38:40.408Z,93050.63
2023-01-19T06:41:07.142Z,93067.72
2023-01-19T06:43:33.837Z,93081.06
2023-01-19T06:46:00.829Z,93079.91
2023-01-19T06:48:27.995Z,93088.97
2023-01-19T06:50:54.862Z,93092.97
2023-01-19T06:53:22.430Z,93070.03
2023-01-19T06:55:49.109Z,93088.47
2023-01-19T06:58:15.917Z,93096.34
2023-01-19T07:00:43.227Z,93092.19
2023-01-19T07:03:19.788Z,93092.44
2023-01-19T07:05:46.758Z,93104.22
2023-01-19T07:08:15.497Z,93096.53
2023-01-19T07:11:23.584Z,93102.25
2023-01-19T07:13:28.712Z,93096.72
2023-01-19T07:15:55.590Z,93098.19
2023-01-19T07:18:22.234Z,93108.28
2023-01-19T07:20:49.362Z,93100.53
2023-01-19T07:23:16.504Z,93127.47
2023-01-19T07:25:46.569Z,93104.88
2023-01-19T07:28:15.753Z,93103.03
2023-01-19T07:30:46.621Z,93101.81
2023-01-19T07:33:13.325Z,93097.13
2023-01-19T07:35:39.971Z,93114.09
2023-01-19T07:38:06.539Z,93112.00
2023-01-19T07:40:33.810Z,93103.19
2023-01-19T07:43:00.663Z,93103.97
2023-01-19T07:45:28.048Z,93088.34
2023-01-19T07:47:54.900Z,93108.44
2023-01-19T07:50:24.596Z,93097.09
2023-01-19T07:52:53.581Z,93109.09
2023-01-19T07:55:21.206Z,93087.56
2023-01-19T07:57:52.006Z,93123.97
2023-01-19T08:00:21.923Z,93114.78
2023-01-19T08:02:52.173Z,93113.59
2023-01-19T08:05:19.974Z,93120.84
2023-01-19T08:07:47.391Z,93113.59
2023-01-19T08:10:15.487Z,93098.84
2023-01-19T08:12:42.691Z,93121.50
2023-01-19T08:15:12.257Z,93143.84
2023-01-19T08:17:38.802Z,93119.53
2023-01-19T08:20:06.698Z,93129.16
2023-01-19T08:22:33.325Z,93117.69
2023-01-19T08:24:59.949Z,93109.72
2023-01-19T08:27:26.681Z,93132.75
2023-01-19T08:29:54.451Z,93122.66
2023-01-19T08:32:21.230Z,93107.13
2023-01-19T08:34:47.896Z,93122.00
2023-01-19T08:37:14.499Z,93122.28
2023-01-19T08:39:41.082Z,93132.81
2023-01-19T08:42:07.665Z,93152.09
2023-01-19T08:44:34.212Z,93129.16
2023-01-19T08:47:00.903Z,93147.06
2023-01-19T08:49:27.479Z,93134.69
2023-01-19T08:51:54.063Z,93140.34
2023-01-19T08:54:21.875Z,93141.63
2023-01-19T08:56:48.613Z,93147.59
2023-01-19T08:59:15.254Z,93140.03
2023-01-19T09:01:42.103Z,93167.13
2023-01-19T09:04:10.651Z,93155.41
2023-01-19T09:06:37.328Z,93148.47
2023-01-19T09:09:04.320Z,93156.41
2023-01-19T09:11:31.004Z,93142.50
2023-01-19T09:13:57.621Z,93121.78
2023-01-19T09:16:27.083Z,93181.84
2023-01-19T09:18:54.226Z,93113.66
2023-01-19T09:21:20.916Z,93128.97
2023-01-19T09:23:49.176Z,93134.69
2023-01-19T09:26:15.980Z,93123.91
2023-01-19T09:28:42.539Z,93110.97
2023-01-19T09:31:09.790Z,93111.81
2023-01-19T09:33:36.522Z,93107.03
2023-01-19T09:36:05.927Z,93125.47
2023-01-19T09:38:33.159Z,93151.59
2023-01-19T09:41:00.850Z,93113.91
2023-01-19T09:43:47.520Z,93112.97
2023-01-19T09:46:33.547Z,93124.09
2023-01-19T09:49:06.734Z,93094.91
2023-01-19T09:51:38.433Z,93113.28
2023-01-19T09:54:17.399Z,93101.06
2023-01-19T09:56:46.081Z,93087.28
2023-01-19T09:59:25.504Z,93072.72
2023-01-19T11:32:49.729Z,93035.25
2023-01-19T12:02:23.065Z,92969.91
2023-01-19T12:04:51.539Z,92969.44
2023-01-19T12:07:25.999Z,92959.31
2023-01-19T12:09:58.814Z,92978.88
2023-01-19T12:12:33.072Z,92979.22
2023-01-19T12:15:19.343Z,92995.19
2023-01-19T12:17:49.782Z,92981.25
2023-01-19T12:20:25.331Z,92992.34
2023-01-19T12:23:00.413Z,92980.50
2023-01-19T12:26:03.457Z,92975.59
2023-01-19T12:28:37.125Z,92972.56
2023-01-19T12:31:04.089Z,92956.47
2023-01-19T12:33:38.786Z,92999.47
2023-01-19T12:36:17.366Z,92993.03
2023-01-19T12:38:54.053Z,92973.06
2023-01-19T12:41:26.380Z,92990.72
2023-01-19T12:44:11.039Z,92999.94
2023-01-19T12:46:41.282Z,92978.66
2023-01-19T12:49:27.841Z,92996.84
2023-01-19T12:52:13.109Z,93017.03
2023-01-19T12:54:55.214Z,92968.94
2023-01-19T12:57:33.277Z,92992.25
2023-01-19T13:00:23.045Z,92997.91
2023-01-19T13:02:54.063Z,92982.44
2023-01-19T13:05:33.549Z,92967.38
2023-01-19T13:08:03.681Z,93007.75
2023-01-19T13:11:16.405Z,92988.47
2023-01-19T13:13:48.514Z,93010.91
2023-01-19T13:16:25.119Z,93002.69
2023-01-19T13:19:06.743Z,92996.31
2023-01-19T13:21:35.786Z,93018.44
2023-01-19T13:24:05.859Z,93022.06
2023-01-19T13:26:33.422Z,92976.94
2023-01-19T13:29:15.837Z,92997.81
2023-01-19T13:31:49.109Z,93003.69
2023-01-19T13:34:21.143Z,92980.50
2023-01-19T13:36:52.915Z,92971.06
2023-01-19T13:39:37.887Z,92970.22
2023-01-19T13:42:13.286Z,92985.03
2023-01-19T13:45:02.148Z,92978.38
2023-01-19T13:47:44.707Z,92961.28
2023-01-19T13:50:35.227Z,92980.47
2023-01-19T13:53:02.833Z,92958.59
2023-01-19T13:55:30.936Z,92980.72
2023-01-19T13:57:58.120Z,92986.19
2023-01-19T14:00:27.529Z,92975.94
2023-01-19T14:02:55.988Z,92978.47
2023-01-19T14:05:31.717Z,92980.09
2023-01-19T14:08:04.138Z,92974.31
2023-01-19T14:10:31.723Z,92985.66
2023-01-19T14:13:00.198Z,92971.56
2023-01-19T14:15:28.453Z,92992.47
2023-01-19T14:18:10.124Z,92988.75
2023-01-19T14:20:37.251Z,92991.00
2023-01-19T14:23:05.016Z,93011.63
2023-01-19T14:25:36.545Z,93010.22
2023-01-19T14:28:45.540Z,93015.53
2023-01-19T14:31:28.103Z,93025.31
2023-01-19T14:33:55.924Z,93021.75
2023-01-19T14:36:33.731Z,93007.94
2023-01-19T14:39:03.884Z,93012.06
2023-01-19T14:41:39.195Z,93015.03
2023-01-19T14:44:18.481Z,93014.75
2023-01-19T14:46:47.999Z,93016.22
2023-01-19T14:49:29.357Z,93021.28
2023-01-19T14:51:57.086Z,93014.34
2023-01-19T14:54:40.993Z,93026.09
2023-01-19T14:57:13.177Z,93010.03
2023-01-19T14:59:40.874Z,93005.13
2023-01-19T15:02:07.790Z,93014.34
2023-01-19T15:04:34.778Z,93017.00
2023-01-19T15:07:01.362Z,93015.44
2023-01-19T15:09:27.997Z,93001.69
2023-01-19T15:11:54.667Z,93018.69
2023-01-19T15:14:21.950Z,93020.69
2023-01-19T15:16:49.164Z,93030.34
2023-01-19T15:19:17.877Z,93063.09
2023-01-19T15:21:46.861Z,93043.94
2023-01-19T15:24:16.349Z,93041.03
2023-01-19T15:26:44.433Z,93046.75
2023-01-19T15:29:23.322Z,93033.22
2023-01-19T15:31:50.465Z,93049.81
2023-01-19T15:34:17.180Z,93025.47
2023-01-19T15:36:43.946Z,93035.16
2023-01-19T15:39:11.299Z,93012.44
2023-01-19T15:41:41.011Z,93022.97
2023-01-19T15:44:10.792Z,93045.00
2023-01-19T15:46:38.108Z,93045.75
2023-01-19T15:49:05.814Z,93056.63
2023-01-19T15:51:33.021Z,93062.06
2023-01-19T15:53:59.725Z,93071.38
2023-01-19T15:56:29.197Z,93091.38
2023-01-19T15:58:58.757Z,93106.13
2023-01-19T16:01:33.910Z,93088.06
2023-01-19T16:04:04.087Z,93098.09
2023-01-19T16:06:31.423Z,93111.34
2023-01-19T16:09:01.893Z,93119.50
2023-01-19T16:11:30.999Z,93122.38
2023-01-19T16:13:57.909Z,93132.16
2023-01-19T16:16:26.280Z,93143.03
2023-01-19T16:18:53.047Z,93144.19
2023-01-19T16:21:19.785Z,93174.31
2023-01-19T16:23:46.478Z,93206.97
2023-01-19T16:26:32.309Z,93225.03
2023-01-19T16:29:08.597Z,93224.63
2023-01-19T16:31:36.498Z,93218.16
2023-01-19T16:34:03.287Z,93221.59
2023-01-19T16:36:32.167Z,93208.97
2023-01-19T16:39:01.018Z,93238.88
2023-01-19T16:41:28.192Z,93241.94
2023-01-19T16:43:57.241Z,93231.88
2023-01-19T16:46:26.422Z,93213.56
2023-01-19T16:48:53.127Z,93213.34
2023-01-19T16:51:20.357Z,93233.91
2023-01-19T16:53:49.749Z,93220.25
2023-01-19T16:56:17.360Z,93227.94
2023-01-19T16:58:44.208Z,93236.97
2023-01-19T17:01:14.852Z,93234.09
2023-01-19T17:03:42.601Z,93221.09
2023-01-19T17:06:11.132Z,93215.03
2023-01-19T17:08:38.790Z,93214.88
2023-01-19T17:11:13.921Z,93214.88
2023-01-19T17:13:40.572Z,93181.72
2023-01-19T17:16:08.075Z,93153.03
2023-01-19T17:18:35.844Z,93148.38
2023-01-19T17:21:08.322Z,93152.16
2023-01-19T17:23:38.749Z,93147.47
2023-01-19T17:26:05.580Z,93150.59
2023-01-19T17:28:32.205Z,93158.75
2023-01-19T17:31:05.920Z,93151.28
2023-01-19T17:33:33.137Z,93128.75
2023-01-19T17:36:22.387Z,93118.50
2023-01-19T17:38:50.188Z,93154.56
2023-01-19T17:41:19.471Z,93179.09
2023-01-19T17:43:46.681Z,93192.47
2023-01-19T17:46:13.691Z,93192.88
2023-01-19T17:48:40.564Z,93205.34
2023-01-19T17:51:09.947Z,93211.19
2023-01-19T17:53:38.125Z,93221.94
2023-01-19T17:56:05.761Z,93221.16
2023-01-19T17:58:32.698Z,93228.88
2023-01-19T18:01:08.959Z,93251.50
2023-01-19T18:03:35.951Z,93242.59
2023-01-19T18:06:02.691Z,93249.56
2023-01-19T18:08:29.524Z,93247.19
2023-01-19T18:10:57.605Z,93256.34
2023-01-19T18:13:24.758Z,93265.44
2023-01-19T18:15:51.846Z,93276.19
2023-01-19T18:18:18.467Z,93269.66
2023-01-19T18:20:45.145Z,93276.72
2023-01-19T18:23:12.105Z,93266.22
2023-01-19T18:25:39.815Z,93270.88
2023-01-19T18:28:07.204Z,93290.06
2023-01-19T18:30:37.283Z,93289.81
2023-01-19T18:33:04.512Z,93286.31
2023-01-19T18:35:31.096Z,93280.94
2023-01-19T18:37:58.641Z,93273.22
2023-01-19T18:40:26.070Z,93266.38
2023-01-19T18:42:52.750Z,93268.56
2023-01-19T18:45:19.350Z,93264.47
2023-01-19T18:47:45.987Z,93260.44
2023-01-19T18:50:14.431Z,93258.25
2023-01-19T18:52:42.637Z,93261.63
2023-01-19T18:55:10.717Z,93239.63
2023-01-19T18:57:37.574Z,93235.78
2023-01-19T19:00:05.545Z,93235.22
2023-01-19T19:02:33.307Z,93246.94
2023-01-19T19:05:03.556Z,93250.56
2023-01-19T19:07:30.427Z,93254.13
2023-01-19T19:09:58.217Z,93254.41
2023-01-19T19:12:25.131Z,93254.47
2023-01-19T19:14:52.794Z,93259.53
2023-01-19T19:17:20.704Z,93269.03
2023-01-19T19:19:47.310Z,93281.47
2023-01-19T19:22:14.161Z,93284.09
2023-01-19T19:24:40.803Z,93300.78
2023-01-19T19:27:07.450Z,93311.28
2023-01-19T19:29:36.380Z,93302.22
2023-01-19T19:32:07.847Z,93307.13
2023-01-19T19:34:35.873Z,93329.50
2023-01-19T19:37:02.798Z,93319.28
2023-01-19T19:39:29.602Z,93320.97
2023-01-19T19:41:56.289Z,93320.53
2023-01-19T19:44:23.241Z,93288.53
2023-01-19T19:46:49.966Z,93280.66
2023-01-19T19:49:21.391Z,93279.94
2023-01-19T19:51:49.897Z,93276.78
2023-01-19T19:54:17.022Z,93257.44
2023-01-19T19:56:44.402Z,93230.47
2023-01-19T19:59:12.675Z,93230.28
2023-01-19T20:01:39.880Z,93201.72
2023-01-19T20:04:09.832Z,93196.03
2023-01-19T20:06:39.887Z,93192.88
2023-01-19T20:09:14.309Z,93196.38
2023-01-19T20:11:42.666Z,93204.06
2023-01-19T20:14:13.478Z,93218.19
2023-01-19T20:16:41.002Z,93230.81
2023-01-19T20:19:09.965Z,93240.44
2023-01-19T20:21:40.636Z,93248.84
2023-01-19T20:24:12.829Z,93258.75
2023-01-19T20:26:44.168Z,93250.53
2023-01-19T20:29:13.181Z,93273.38
2023-01-19T20:31:44.843Z,93262.44
2023-01-19T20:34:14.777Z,93236.59
2023-01-19T20:36:41.749Z,93227.75
2023-01-19T20:39:10.924Z,93209.94
2023-01-19T20:41:43.842Z,93201.97
2023-01-19T20:44:22.833Z,93209.88
2023-01-19T20:46:49.887Z,93204.06
2023-01-19T20:49:16.609Z,93207.00
2023-01-19T20:51:45.311Z,93192.50
2023-01-19T20:54:14.104Z,93157.97
2023-01-19T20:56:41.724Z,93149.97
2023-01-19T20:59:10.197Z,93171.97
2023-01-19T21:01:36.999Z,93176.09
2023-01-19T21:04:04.231Z,93172.78
2023-01-19T21:06:30.889Z,93189.00
2023-01-19T21:08:58.009Z,93184.16
2023-01-19T21:11:25.287Z,93196.03
2023-01-19T21:13:55.705Z,93189.09
2023-01-19T21:16:29.308Z,93179.66
2023-01-19T21:18:56.337Z,93181.69
2023-01-19T21:21:30.767Z,93214.06
2023-01-19T21:23:59.837Z,93229.09
2023-01-19T21:26:26.633Z,93225.88
2023-01-19T21:28:53.454Z,93218.88
2023-01-19T21:31:22.620Z,93216.00
2023-01-19T21:33:57.134Z,93201.47
2023-01-19T21:36:24.686Z,93187.34
2023-01-19T21:38:52.411Z,93193.78
2023-01-19T21:41:19.416Z,93180.13
2023-01-19T21:43:46.303Z,93166.53
2023-01-19T21:46:22.193Z,93177.69
2023-01-19T21:48:48.900Z,93158.16
2023-01-19T21:51:15.904Z,93148.63
2023-01-19T21:53:42.889Z,93130.72
2023-01-19T21:56:10.850Z,93124.22
2023-01-19T21:58:37.874Z,93138.69
2023-01-19T22:01:07.327Z,93136.75
2023-01-19T22:03:34.067Z,93134.47
2023-01-19T22:06:05.932Z,93136.59
2023-01-19T22:08:32.718Z,93143.41
2023-01-19T22:11:06.800Z,93147.88
2023-01-19T22:13:34.817Z,93142.97
2023-01-19T22:16:03.016Z,93153.78
2023-01-19T22:18:30.004Z,93156.38
2023-01-19T22:20:56.872Z,93152.09
2023-01-19T22:23:23.492Z,93148.16
2023-01-19T22:25:50.143Z,93145.88
2023-01-19T22:28:16.775Z,93133.94
2023-01-19T22:30:43.707Z,93111.44
2023-01-19T22:33:10.376Z,93099.91
2023-01-19T22:35:36.945Z,93109.91
2023-01-19T22:38:03.649Z,93104.56
2023-01-19T22:40:30.239Z,93108.25
2023-01-19T22:42:56.877Z,93107.50
2023-01-19T22:45:23.750Z,93099.94
2023-01-19T22:47:50.405Z,93101.88
2023-01-19T22:50:17.107Z,93096.19
2023-01-19T22:52:43.791Z,93099.63
2023-01-19T22:55:10.563Z,93091.69
2023-01-19T22:57:37.460Z,93093.94
2023-01-19T23:00:07.223Z,93093.94
2023-01-19T23:02:34.149Z,93086.56
2023-01-19T23:05:00.996Z,93098.91
2023-01-19T23:07:27.645Z,93108.00
2023-01-19T23:09:54.204Z,93112.16
2023-01-19T23:12:20.798Z,93122.38
2023-01-19T23:14:47.392Z,93117.34
2023-01-19T23:17:14.008Z,93121.34
2023-01-19T23:19:40.665Z,93136.00
2023-01-19T23:22:07.208Z,93160.41
2023-01-19T23:24:33.925Z,93188.13
2023-01-19T23:27:02.269Z,93217.78
2023-01-19T23:29:28.942Z,93224.03
2023-01-19T23:31:56.299Z,93238.09
2023-01-19T23:34:22.917Z,93246.50
2023-01-19T23:36:49.510Z,93241.34
2023-01-19T23:39:22.285Z,93226.66
2023-01-19T23:41:49.733Z,93217.41
2023-01-19T23:44:17.356Z,93208.97
2023-01-19T23:46:44.725Z,93195.19
2023-01-19T23:49:12.358Z,93179.66
2023-01-19T23:51:39.871Z,93167.63
2023-01-19T23:54:06.794Z,93170.56
2023-01-19T23:56:35.728Z,93181.59
2023-01-19T23:59:08.280Z,93194.94
